createdAt,value
2017-06-24T00:01:17.340Z,13.60
2017-06-24T00:03:44.865Z,13.70
2017-06-24T00:06:12.600Z,13.70
2017-06-24T00:08:40.249Z,13.70
2017-06-24T00:11:08.085Z,13.60
2017-06-24T00:13:35.746Z,13.60
2017-06-24T00:16:03.272Z,13.50
2017-06-24T00:18:31.149Z,13.40
2017-06-24T00:20:58.929Z,13.30
2017-06-24T00:23:26.464Z,13.30
2017-06-24T00:25:53.977Z,13.20
2017-06-24T00:28:21.554Z,13.20
2017-06-24T00:30:49.972Z,13.30
2017-06-24T00:33:17.525Z,13.20
2017-06-24T00:35:45.297Z,13.30
2017-06-24T00:38:12.872Z,13.30
2017-06-24T00:40:41.369Z,13.20
2017-06-24T00:43:09.196Z,13.20
2017-06-24T00:45:37.062Z,13.20
2017-06-24T00:48:04.577Z,13.20
2017-06-24T00:50:33.573Z,13.10
2017-06-24T00:53:01.809Z,13.10
2017-06-24T00:55:29.315Z,13.10
2017-06-24T00:57:56.857Z,13.00
2017-06-24T01:00:24.357Z,13.10
2017-06-24T01:02:52.063Z,13.00
2017-06-24T01:05:20.393Z,13.00
2017-06-24T01:07:47.956Z,13.00
2017-06-24T01:10:15.460Z,13.00
2017-06-24T01:12:43.855Z,13.00
2017-06-24T01:15:11.385Z,13.00
2017-06-24T01:17:39.661Z,13.00
2017-06-24T01:20:08.192Z,12.90
2017-06-24T01:22:35.701Z,12.90
2017-06-24T01:25:04.011Z,12.90
2017-06-24T01:27:31.546Z,12.90
2017-06-24T01:29:59.107Z,12.90
2017-06-24T01:32:26.857Z,12.90
2017-06-24T01:34:56.002Z,12.90
2017-06-24T01:37:23.642Z,12.90
2017-06-24T01:39:51.566Z,12.90
2017-06-24T01:42:19.983Z,12.80
2017-06-24T01:44:47.495Z,12.80
2017-06-24T01:47:15.286Z,12.80
2017-06-24T01:49:43.185Z,12.80
2017-06-24T01:52:11.309Z,12.80
2017-06-24T01:54:39.217Z,12.80
2017-06-24T02:10:01.586Z,12.80
2017-06-24T02:12:29.288Z,12.80
2017-06-24T02:14:56.823Z,12.70
2017-06-24T02:17:24.325Z,12.60
2017-06-24T02:19:51.932Z,12.60
2017-06-24T02:22:19.617Z,12.60
2017-06-24T02:24:47.124Z,12.60
2017-06-24T02:27:15.444Z,12.70
2017-06-24T02:29:43.185Z,12.70
2017-06-24T02:32:10.977Z,12.70
2017-06-24T02:34:38.530Z,12.70
2017-06-24T02:37:06.051Z,12.70
2017-06-24T02:39:33.649Z,12.70
2017-06-24T02:42:01.197Z,12.70
2017-06-24T02:44:29.085Z,12.70
2017-06-24T02:46:56.592Z,12.70
2017-06-24T02:49:24.134Z,12.70
2017-06-24T02:51:52.969Z,12.70
2017-06-24T02:54:20.837Z,12.70
2017-06-24T02:56:48.345Z,12.70
2017-06-24T02:59:16.153Z,12.70
2017-06-24T03:01:43.917Z,12.70
2017-06-24T03:04:11.442Z,12.70
2017-06-24T03:06:38.969Z,12.70
2017-06-24T03:09:06.472Z,12.80
2017-06-24T03:11:34.001Z,12.80
2017-06-24T03:14:01.521Z,12.90
2017-06-24T03:16:29.145Z,12.90
2017-06-24T03:18:56.678Z,13.00
2017-06-24T03:21:24.189Z,13.00
2017-06-24T03:23:51.718Z,13.20
2017-06-24T03:26:19.344Z,13.20
2017-06-24T03:28:47.969Z,13.40
2017-06-24T03:31:15.529Z,13.40
2017-06-24T03:33:43.466Z,13.60
2017-06-24T03:36:11.033Z,13.70
2017-06-24T03:38:38.537Z,13.80
2017-06-24T03:41:06.164Z,13.90
2017-06-24T03:43:33.670Z,13.90
2017-06-24T03:46:02.065Z,14.00
2017-06-24T03:48:29.574Z,14.00
2017-06-24T03:50:57.113Z,14.10
2017-06-24T03:53:24.873Z,14.10
2017-06-24T03:55:52.844Z,14.10
2017-06-24T03:58:20.569Z,14.20
2017-06-24T04:00:48.082Z,14.40
2017-06-24T04:03:15.654Z,14.50
2017-06-24T04:05:43.157Z,14.80
2017-06-24T04:08:10.696Z,15.00
2017-06-24T04:10:38.328Z,15.30
2017-06-24T04:13:06.654Z,15.50
2017-06-24T04:15:34.265Z,15.50
2017-06-24T04:18:02.577Z,15.90
2017-06-24T04:20:30.101Z,15.90
2017-06-24T04:22:58.740Z,16.30
2017-06-24T04:25:26.432Z,16.20
2017-06-24T04:27:53.933Z,16.50
2017-06-24T04:30:21.462Z,16.80
2017-06-24T04:32:48.961Z,17.00
2017-06-24T04:35:16.484Z,17.20
2017-06-24T04:37:44.109Z,17.50
2017-06-24T04:40:11.609Z,17.80
2017-06-24T04:42:39.132Z,17.80
2017-06-24T04:45:07.405Z,18.50
2017-06-24T04:47:34.949Z,18.40
2017-06-24T04:50:02.587Z,18.90
2017-06-24T04:52:30.354Z,19.40
2017-06-24T04:54:57.873Z,19.60
2017-06-24T04:57:25.441Z,19.50
2017-06-24T04:59:53.285Z,19.10
2017-06-24T05:02:21.091Z,18.80
2017-06-24T05:04:48.874Z,18.60
2017-06-24T05:07:16.540Z,18.50
2017-06-24T05:09:44.073Z,18.60
2017-06-24T05:12:11.935Z,18.70
2017-06-24T05:14:39.705Z,18.70
2017-06-24T05:17:07.557Z,18.80
2017-06-24T05:19:35.840Z,19.00
2017-06-24T05:29:30.569Z,23.00
2017-06-24T05:36:55.940Z,24.40
2017-06-24T05:39:23.690Z,25.40
2017-06-24T05:41:51.189Z,26.40
2017-06-24T05:44:18.709Z,26.30
2017-06-24T05:46:46.208Z,26.60
2017-06-24T05:49:15.030Z,26.60
2017-06-24T05:51:42.573Z,26.10
2017-06-24T05:54:10.080Z,26.60
2017-06-24T05:56:38.369Z,27.10
2017-06-24T05:59:06.097Z,27.10
2017-06-24T06:01:33.697Z,27.30
2017-06-24T06:04:01.204Z,27.40
2017-06-24T06:06:28.737Z,27.70
2017-06-24T06:08:56.229Z,27.60
2017-06-24T06:11:23.748Z,27.40
2017-06-24T06:13:51.245Z,27.10
2017-06-24T06:16:18.748Z,27.50
2017-06-24T06:18:46.464Z,28.00
2017-06-24T06:21:13.971Z,28.20
2017-06-24T06:23:41.586Z,28.60
2017-06-24T06:26:10.077Z,28.20
2017-06-24T06:28:38.575Z,28.40
2017-06-24T06:31:06.361Z,28.40
2017-06-24T06:33:33.897Z,28.50
2017-06-24T06:36:01.402Z,29.00
2017-06-24T06:38:29.245Z,28.20
2017-06-24T06:40:57.105Z,28.50
2017-06-24T06:43:24.836Z,29.00
2017-06-24T06:45:52.373Z,28.50
2017-06-24T06:48:20.640Z,28.20
2017-06-24T06:50:49.088Z,27.10
2017-06-24T06:53:16.862Z,27.00
2017-06-24T06:55:44.464Z,27.20
2017-06-24T06:58:12.257Z,27.60
2017-06-24T07:00:40.017Z,27.70
2017-06-24T07:03:07.781Z,27.30
2017-06-24T07:05:35.515Z,27.50
2017-06-24T07:08:03.042Z,26.90
2017-06-24T07:10:31.305Z,27.30
2017-06-24T07:12:58.987Z,27.30
2017-06-24T07:15:27.253Z,27.50
2017-06-24T07:17:55.549Z,27.80
2017-06-24T07:20:23.057Z,27.80
2017-06-24T07:22:50.552Z,27.90
2017-06-24T07:25:18.083Z,28.10
2017-06-24T07:27:45.825Z,27.40
2017-06-24T07:30:13.347Z,27.10
2017-06-24T07:32:40.841Z,27.90
2017-06-24T07:35:08.689Z,27.60
2017-06-24T07:37:36.453Z,27.60
2017-06-24T07:40:03.994Z,28.40
2017-06-24T07:42:31.771Z,28.50
2017-06-24T07:44:59.268Z,28.30
2017-06-24T07:47:26.785Z,28.20
2017-06-24T07:49:54.548Z,27.60
2017-06-24T07:52:22.069Z,27.20
2017-06-24T07:54:49.565Z,27.10
2017-06-24T07:57:17.086Z,26.50
2017-06-24T07:59:44.584Z,26.60
2017-06-24T08:02:12.553Z,27.60
2017-06-24T08:04:40.053Z,28.30
2017-06-24T08:07:08.312Z,28.40
2017-06-24T08:09:36.848Z,28.60
2017-06-24T08:12:04.352Z,28.60
2017-06-24T08:14:32.640Z,28.30
2017-06-24T08:17:00.148Z,28.30
2017-06-24T08:19:27.665Z,28.60
2017-06-24T08:21:55.162Z,28.30
2017-06-24T08:24:22.694Z,27.90
2017-06-24T08:26:50.195Z,27.50
2017-06-24T08:29:17.694Z,28.10
2017-06-24T08:31:45.224Z,28.00
2017-06-24T08:34:13.042Z,28.30
2017-06-24T08:36:40.566Z,28.30
2017-06-24T08:39:08.357Z,27.50
2017-06-24T08:41:35.941Z,26.90
2017-06-24T08:44:03.464Z,27.60
2017-06-24T08:46:30.984Z,27.60
2017-06-24T08:48:59.245Z,27.40
2017-06-24T08:51:27.533Z,27.00
2017-06-24T08:53:55.814Z,26.60
2017-06-24T08:56:23.508Z,26.60
2017-06-24T08:58:51.025Z,27.20
2017-06-24T09:01:19.288Z,28.00
2017-06-24T09:03:47.577Z,28.20
2017-06-24T09:06:15.302Z,28.20
2017-06-24T09:08:43.608Z,28.10
2017-06-24T09:11:11.873Z,28.40
2017-06-24T09:13:40.373Z,28.70
2017-06-24T09:16:08.169Z,28.70
2017-06-24T09:18:35.718Z,28.50
2017-06-24T09:21:03.277Z,27.80
2017-06-24T09:23:30.773Z,27.00
2017-06-24T09:25:58.297Z,26.40
2017-06-24T09:28:25.798Z,26.60
2017-06-24T09:30:54.055Z,26.10
2017-06-24T09:33:21.549Z,25.50
2017-06-24T09:35:49.076Z,25.70
2017-06-24T09:38:17.445Z,25.60
2017-06-24T09:40:45.276Z,25.60
2017-06-24T09:43:12.842Z,25.20
2017-06-24T09:45:40.354Z,25.10
2017-06-24T09:48:07.886Z,25.10
2017-06-24T09:50:36.311Z,25.30
2017-06-24T09:53:03.837Z,25.30
2017-06-24T09:55:32.113Z,25.40
2017-06-24T09:57:59.662Z,25.40
2017-06-24T10:00:28.065Z,25.10
2017-06-24T10:02:55.600Z,25.10
2017-06-24T10:05:24.121Z,25.00
2017-06-24T10:07:51.627Z,24.90
2017-06-24T10:10:20.271Z,24.90
2017-06-24T10:12:47.777Z,24.90
2017-06-24T10:15:15.844Z,24.90
2017-06-24T10:17:43.681Z,24.90
2017-06-24T10:20:11.212Z,25.00
2017-06-24T10:22:38.718Z,24.80
2017-06-24T10:25:06.984Z,24.80
2017-06-24T10:27:34.529Z,24.70
2017-06-24T10:30:02.030Z,24.80
2017-06-24T10:32:29.821Z,24.80
2017-06-24T10:34:57.321Z,25.10
2017-06-24T10:37:25.608Z,25.10
2017-06-24T10:39:53.108Z,25.10
2017-06-24T10:42:20.636Z,25.30
2017-06-24T10:44:48.217Z,25.10
2017-06-24T10:47:16.086Z,25.20
2017-06-24T10:49:43.610Z,25.20
2017-06-24T10:52:11.217Z,25.20
2017-06-24T10:54:38.822Z,25.10
2017-06-24T10:57:06.622Z,25.00
2017-06-24T10:59:34.227Z,25.00
2017-06-24T11:02:02.505Z,25.10
2017-06-24T11:04:30.045Z,25.10
2017-06-24T11:06:58.317Z,25.40
2017-06-24T11:09:25.825Z,25.40
2017-06-24T11:11:53.369Z,25.40
2017-06-24T11:14:20.872Z,25.60
2017-06-24T11:16:48.716Z,25.80
2017-06-24T11:19:16.222Z,25.70
2017-06-24T11:21:43.749Z,25.50
2017-06-24T11:24:11.252Z,25.60
2017-06-24T11:26:38.785Z,25.50
2017-06-24T11:29:07.057Z,25.50
2017-06-24T11:31:34.558Z,25.50
2017-06-24T11:34:02.082Z,25.50
2017-06-24T11:36:29.794Z,25.40
2017-06-24T11:38:57.346Z,25.20
2017-06-24T11:41:24.865Z,25.40
2017-06-24T11:43:52.585Z,25.30
2017-06-24T11:46:20.140Z,25.50
2017-06-24T11:48:48.105Z,25.40
2017-06-24T11:51:15.641Z,25.50
2017-06-24T11:53:43.144Z,25.50
2017-06-24T11:56:11.501Z,25.20
2017-06-24T11:58:39.026Z,25.20
2017-06-24T12:01:06.558Z,25.30
2017-06-24T12:03:34.061Z,25.20
2017-06-24T12:06:01.925Z,25.20
2017-06-24T12:08:29.681Z,25.20
2017-06-24T12:10:57.211Z,25.20
2017-06-24T12:13:24.723Z,25.40
2017-06-24T12:15:52.288Z,25.50
2017-06-24T12:18:20.577Z,25.40
2017-06-24T12:20:48.079Z,25.40
2017-06-24T12:23:15.602Z,25.40
2017-06-24T12:25:43.105Z,25.40
2017-06-24T12:28:10.629Z,25.60
2017-06-24T12:30:45.773Z,25.60
2017-06-24T12:33:13.308Z,25.60
2017-06-24T12:35:40.993Z,25.70
2017-06-24T12:38:08.496Z,25.80
2017-06-24T12:40:36.786Z,25.70
2017-06-24T12:43:04.289Z,25.70
2017-06-24T12:45:31.813Z,25.80
2017-06-24T12:47:59.329Z,25.80
2017-06-24T12:50:26.858Z,25.90
2017-06-24T12:52:54.650Z,25.80
2017-06-24T12:55:22.264Z,25.60
2017-06-24T12:57:49.790Z,25.30
2017-06-24T13:00:17.525Z,25.20
2017-06-24T13:02:45.464Z,25.60
2017-06-24T13:05:13.324Z,25.80
2017-06-24T13:07:41.189Z,25.80
2017-06-24T13:10:08.953Z,25.80
2017-06-24T13:12:36.466Z,25.70
2017-06-24T13:15:03.989Z,25.70
2017-06-24T13:17:31.831Z,25.80
2017-06-24T13:19:59.696Z,26.00
2017-06-24T13:22:27.196Z,26.10
2017-06-24T13:24:55.728Z,26.00
2017-06-24T13:27:23.426Z,26.00
2017-06-24T13:29:50.968Z,25.80
2017-06-24T13:32:18.472Z,25.80
2017-06-24T13:34:46.000Z,25.90
2017-06-24T13:37:14.342Z,25.80
2017-06-24T13:39:42.964Z,25.90
2017-06-24T13:42:10.789Z,25.90
2017-06-24T13:44:38.646Z,26.00
2017-06-24T13:47:06.516Z,26.10
2017-06-24T13:49:34.274Z,26.00
2017-06-24T13:52:01.776Z,25.90
2017-06-24T13:54:29.592Z,25.70
2017-06-24T13:56:57.261Z,25.40
2017-06-24T13:59:24.864Z,25.40
2017-06-24T14:01:53.257Z,25.30
2017-06-24T14:04:20.789Z,25.30
2017-06-24T14:06:48.611Z,25.50
2017-06-24T14:09:16.121Z,25.50
2017-06-24T14:11:44.133Z,25.70
2017-06-24T14:14:11.642Z,25.80
2017-06-24T14:16:40.046Z,26.00
2017-06-24T14:19:07.557Z,26.00
2017-06-24T14:21:35.089Z,26.10
2017-06-24T14:24:02.599Z,26.20
2017-06-24T14:26:30.253Z,26.20
2017-06-24T14:28:57.785Z,26.10
2017-06-24T14:31:25.617Z,25.90
2017-06-24T14:33:53.153Z,25.90
2017-06-24T14:36:20.676Z,26.00
2017-06-24T14:38:49.214Z,26.00
2017-06-24T14:41:16.917Z,26.00
2017-06-24T14:43:44.429Z,25.80
2017-06-24T14:46:11.955Z,25.70
2017-06-24T14:48:39.624Z,25.90
2017-06-24T14:51:07.152Z,25.80
2017-06-24T14:53:34.817Z,25.70
2017-06-24T14:56:02.366Z,25.70
2017-06-24T14:58:30.636Z,25.70
2017-06-24T15:00:58.912Z,25.80
2017-06-24T15:03:27.208Z,25.70
2017-06-24T15:05:55.516Z,25.70
2017-06-24T15:08:23.044Z,25.80
2017-06-24T15:10:51.521Z,25.80
2017-06-24T15:13:19.049Z,25.80
2017-06-24T15:15:46.670Z,25.80
2017-06-24T15:18:14.311Z,25.70
2017-06-24T15:20:41.839Z,25.70
2017-06-24T15:23:09.352Z,25.80
2017-06-24T15:25:37.200Z,25.80
2017-06-24T15:28:04.726Z,25.50
2017-06-24T15:30:32.378Z,25.20
2017-06-24T15:33:00.181Z,25.20
2017-06-24T15:35:27.945Z,25.40
2017-06-24T15:37:55.741Z,25.40
2017-06-24T15:40:23.245Z,25.40
2017-06-24T15:42:50.850Z,25.50
2017-06-24T15:45:18.366Z,25.50
2017-06-24T15:47:45.897Z,25.60
2017-06-24T15:50:14.810Z,25.50
2017-06-24T15:52:42.588Z,25.60
2017-06-24T15:55:10.347Z,25.50
2017-06-24T15:57:37.861Z,25.30
2017-06-24T16:00:05.393Z,25.30
2017-06-24T16:02:32.921Z,25.30
2017-06-24T16:05:00.471Z,25.20
2017-06-24T16:07:28.144Z,25.00
2017-06-24T16:09:55.670Z,25.10
2017-06-24T16:12:23.173Z,25.00
2017-06-24T16:14:50.734Z,24.90
2017-06-24T16:17:18.242Z,24.70
2017-06-24T16:19:45.747Z,24.70
2017-06-24T16:22:13.278Z,24.70
2017-06-24T16:24:40.781Z,24.80
2017-06-24T16:27:09.068Z,24.60
2017-06-24T16:29:36.569Z,24.60
2017-06-24T16:32:04.155Z,24.70
2017-06-24T16:34:31.656Z,24.70
2017-06-24T16:36:59.186Z,24.60
2017-06-24T16:39:27.525Z,24.60
2017-06-24T16:41:55.039Z,24.60
2017-06-24T16:44:22.825Z,24.60
2017-06-24T16:46:50.325Z,24.60
2017-06-24T16:49:18.867Z,24.30
2017-06-24T16:51:46.665Z,24.30
2017-06-24T16:54:14.370Z,24.30
2017-06-24T16:56:41.953Z,24.30
2017-06-24T16:59:09.481Z,24.30
2017-06-24T17:01:36.989Z,24.30
2017-06-24T17:04:04.513Z,24.30
2017-06-24T17:06:32.380Z,24.20
2017-06-24T17:08:59.993Z,23.80
2017-06-24T17:11:28.357Z,23.50
2017-06-24T17:13:55.976Z,23.50
2017-06-24T17:16:25.739Z,23.40
2017-06-24T17:18:53.738Z,23.10
2017-06-24T17:21:21.308Z,22.90
2017-06-24T17:23:48.999Z,22.60
2017-06-24T17:26:16.828Z,22.60
2017-06-24T17:28:44.797Z,22.70
2017-06-24T17:31:12.561Z,22.60
2017-06-24T17:33:40.081Z,22.50
2017-06-24T17:36:07.578Z,22.30
2017-06-24T17:38:35.102Z,22.20
2017-06-24T17:41:02.617Z,22.10
2017-06-24T17:43:30.141Z,21.90
2017-06-24T17:45:57.649Z,22.00
2017-06-24T17:48:26.254Z,21.60
2017-06-24T17:50:54.044Z,21.60
2017-06-24T17:53:22.020Z,21.50
2017-06-24T17:55:49.546Z,21.40
2017-06-24T17:58:17.066Z,21.40
2017-06-24T18:00:45.378Z,21.40
2017-06-24T18:03:12.960Z,21.40
2017-06-24T18:05:40.481Z,21.30
2017-06-24T18:08:08.031Z,21.20
2017-06-24T18:10:35.976Z,21.10
2017-06-24T18:13:04.249Z,21.00
2017-06-24T18:15:31.834Z,20.90
2017-06-24T18:17:59.360Z,20.90
2017-06-24T18:20:27.038Z,20.80
2017-06-24T18:22:55.324Z,20.60
2017-06-24T18:25:22.825Z,20.60
2017-06-24T18:27:50.360Z,20.50
2017-06-24T18:30:18.133Z,20.40
2017-06-24T18:32:46.675Z,20.40
2017-06-24T18:35:14.181Z,20.30
2017-06-24T18:37:41.690Z,20.30
2017-06-24T18:40:09.217Z,20.30
2017-06-24T18:42:36.845Z,20.20
2017-06-24T18:45:04.369Z,20.10
2017-06-24T18:47:31.987Z,20.00
2017-06-24T18:49:59.513Z,19.90
2017-06-24T18:52:27.367Z,19.80
2017-06-24T18:54:55.451Z,19.80
2017-06-24T18:57:22.953Z,19.70
2017-06-24T18:59:52.797Z,19.60
2017-06-24T19:02:21.021Z,19.50
2017-06-24T19:04:49.983Z,19.40
2017-06-24T19:07:18.181Z,19.30
2017-06-24T19:09:46.820Z,19.10
2017-06-24T19:12:14.540Z,19.10
2017-06-24T19:14:42.490Z,19.00
2017-06-24T19:17:11.378Z,18.80
2017-06-24T19:19:40.111Z,18.60
2017-06-24T19:22:08.181Z,18.60
2017-06-24T19:24:37.594Z,18.30
2017-06-24T19:27:05.541Z,18.20
2017-06-24T19:29:35.495Z,18.10
2017-06-24T19:32:03.853Z,17.90
2017-06-24T19:34:32.749Z,17.40
2017-06-24T19:37:00.428Z,17.40
2017-06-24T19:39:28.980Z,17.00
2017-06-24T19:41:57.461Z,17.00
2017-06-24T19:44:29.056Z,16.80
2017-06-24T19:46:59.338Z,16.80
2017-06-24T19:49:28.600Z,16.60
2017-06-24T19:51:57.186Z,16.60
2017-06-24T19:54:26.614Z,16.40
2017-06-24T19:56:55.219Z,16.30
2017-06-24T19:59:26.651Z,16.20
2017-06-24T20:01:57.781Z,16.20
2017-06-24T20:04:26.673Z,16.10
2017-06-24T20:06:56.415Z,16.00
2017-06-24T20:09:24.458Z,15.90
2017-06-24T20:11:52.763Z,15.90
2017-06-24T20:14:21.775Z,15.90
2017-06-24T20:16:51.591Z,15.90
2017-06-24T20:19:19.178Z,15.90
2017-06-24T20:21:49.851Z,15.90
2017-06-24T20:24:22.666Z,15.70
2017-06-24T20:26:50.301Z,15.70
2017-06-24T20:29:18.714Z,15.50
2017-06-24T20:31:46.903Z,15.50
2017-06-24T20:34:16.534Z,15.50
2017-06-24T20:36:44.821Z,15.50
2017-06-24T20:39:17.510Z,15.50
2017-06-24T20:41:46.476Z,15.50
2017-06-24T20:44:16.812Z,15.50
2017-06-24T20:46:46.174Z,15.50
2017-06-24T20:49:15.666Z,15.50
2017-06-24T20:51:45.075Z,15.50
2017-06-24T20:54:15.090Z,15.50
2017-06-24T20:56:44.186Z,15.50
2017-06-24T20:59:11.840Z,15.40
2017-06-24T21:01:40.211Z,15.40
2017-06-24T21:04:09.417Z,15.30
2017-06-24T21:06:38.479Z,15.30
2017-06-24T21:09:06.602Z,15.20
2017-06-24T21:11:34.489Z,15.20
2017-06-24T21:14:02.198Z,15.10
2017-06-24T21:16:29.951Z,15.10
2017-06-24T21:18:57.577Z,15.00
2017-06-24T21:21:26.067Z,15.30
2017-06-24T21:23:57.425Z,15.30
2017-06-24T21:26:25.681Z,15.40
2017-06-24T21:28:53.208Z,15.30
2017-06-24T21:31:21.333Z,15.30
2017-06-24T21:33:50.839Z,15.30
2017-06-24T21:36:18.457Z,15.30
2017-06-24T21:38:45.977Z,15.20
2017-06-24T21:41:13.472Z,15.10
2017-06-24T21:43:41.005Z,15.10
2017-06-24T21:46:08.893Z,15.10
2017-06-24T21:48:36.428Z,15.10
2017-06-24T21:51:03.945Z,15.10
2017-06-24T21:53:31.447Z,15.10
2017-06-24T21:55:59.288Z,15.10
2017-06-24T21:58:27.535Z,15.10
2017-06-24T22:00:55.269Z,15.00
2017-06-24T22:03:24.243Z,14.90
2017-06-24T22:05:51.766Z,14.90
2017-06-24T22:08:19.265Z,14.90
2017-06-24T22:10:46.796Z,14.90
2017-06-24T22:13:14.784Z,14.80
2017-06-24T22:15:42.328Z,14.80
2017-06-24T22:18:10.592Z,14.80
2017-06-24T22:20:38.194Z,14.70
2017-06-24T22:23:06.098Z,14.60
2017-06-24T22:25:35.113Z,14.60
2017-06-24T22:28:02.636Z,14.60
2017-06-24T22:30:30.144Z,14.50
2017-06-24T22:32:57.911Z,14.50
2017-06-24T22:35:25.416Z,14.40
2017-06-24T22:37:53.177Z,14.50
2017-06-24T22:40:21.021Z,14.40
2017-06-24T22:42:49.161Z,14.50
2017-06-24T22:45:17.198Z,14.50
2017-06-24T22:47:44.861Z,14.50
2017-06-24T22:50:12.983Z,14.50
2017-06-24T22:52:41.470Z,14.50
2017-06-24T22:55:09.297Z,14.50
2017-06-24T22:57:37.104Z,14.50
2017-06-24T23:00:06.042Z,14.40
2017-06-24T23:02:34.288Z,14.40
2017-06-24T23:05:02.162Z,14.40
2017-06-24T23:07:31.096Z,14.40
2017-06-24T23:10:00.021Z,14.30
2017-06-24T23:12:27.810Z,14.20
2017-06-24T23:14:56.426Z,14.20
2017-06-24T23:17:24.240Z,14.10
2017-06-24T23:19:52.579Z,14.00
2017-06-24T23:22:21.549Z,13.90
2017-06-24T23:24:49.311Z,13.90
2017-06-24T23:27:17.495Z,13.90
2017-06-24T23:29:46.089Z,13.80
2017-06-24T23:32:13.750Z,13.80
2017-06-24T23:34:43.041Z,13.60
2017-06-24T23:37:11.425Z,13.60
2017-06-24T23:39:40.186Z,13.60
2017-06-24T23:42:08.899Z,13.50
2017-06-24T23:44:36.973Z,13.50
2017-06-24T23:47:05.205Z,13.40
2017-06-24T23:49:33.303Z,13.40
2017-06-24T23:52:02.425Z,13.30
2017-06-24T23:54:30.604Z,13.20
2017-06-24T23:56:58.133Z,13.20
2017-06-24T23:59:25.649Z,13.20
